Time;durP1;ratioP1;P1;durP2;ratioP2;P2;SDS_P1;SDS_P2;PMS_P1;PMS_P2;Temp;Humidity;BMP_temperature;BMP_pressure;BME280_temperature;BME280_humidity;BME280_pressure;Samples;Min_cycle;Max_cycle;Signal;HPM_P1;HPM_P2
2024/04/06 00:01:21;;;;;;;9.02;3.85;;;15.70;91.50;;;;;;5055483;28;20036;-78
2024/04/06 00:03:47;;;;;;;7.68;3.22;;;15.70;91.60;;;;;;5060692;28;20036;-77
2024/04/06 00:06:13;;;;;;;10.88;4.40;;;15.60;91.50;;;;;;5059324;28;20033;-77
2024/04/06 00:08:39;;;;;;;9.68;3.90;;;15.60;91.50;;;;;;5060265;28;20082;-78
2024/04/06 00:11:05;;;;;;;9.05;3.90;;;15.60;91.50;;;;;;5059004;28;20050;-78
2024/04/06 00:13:30;;;;;;;9.52;3.72;;;15.60;91.50;;;;;;5061447;28;20036;-77
2024/04/06 00:15:56;;;;;;;6.97;3.33;;;15.60;91.50;;;;;;5058325;28;20036;-78
2024/04/06 00:18:22;;;;;;;8.40;3.53;;;15.50;91.50;;;;;;5060755;28;20023;-77
2024/04/06 00:20:48;;;;;;;6.85;3.95;;;15.50;91.50;;;;;;5058650;28;20075;-78
2024/04/06 00:23:13;;;;;;;8.23;4.28;;;15.40;91.60;;;;;;5060225;28;20028;-78
2024/04/06 00:25:39;;;;;;;8.98;4.53;;;15.40;91.70;;;;;;5056788;28;20534;-78
2024/04/06 00:28:05;;;;;;;8.70;4.30;;;15.40;91.60;;;;;;5060314;28;20571;-78
2024/04/06 00:30:30;;;;;;;7.50;3.80;;;15.40;91.50;;;;;;5056264;28;20021;-77
2024/04/06 00:32:56;;;;;;;8.75;4.13;;;15.40;91.40;;;;;;5058615;28;20076;-78
2024/04/06 00:35:22;;;;;;;8.27;3.97;;;15.40;91.40;;;;;;5062520;28;20891;-78
2024/04/06 00:37:49;;;;;;;8.75;4.28;;;15.40;91.40;;;;;;5058139;28;20511;-78
2024/04/06 00:40:15;;;;;;;9.50;4.72;;;15.40;91.30;;;;;;5060154;28;20016;-77
2024/04/06 00:42:40;;;;;;;9.73;4.13;;;15.40;91.30;;;;;;5059388;28;20064;-77
2024/04/06 00:45:07;;;;;;;7.45;4.28;;;15.40;91.30;;;;;;5059410;28;20060;-77
2024/04/06 00:47:34;;;;;;;7.10;3.80;;;15.40;91.40;;;;;;5059874;28;20025;-77
2024/04/06 00:49:59;;;;;;;9.52;3.70;;;15.50;91.10;;;;;;5063941;28;20500;-78
2024/04/06 00:52:25;;;;;;;8.48;3.35;;;15.60;90.80;;;;;;5060413;28;20025;-78
2024/04/06 00:54:51;;;;;;;7.57;3.70;;;15.60;90.70;;;;;;5060861;28;20103;-78
2024/04/06 00:57:16;;;;;;;7.25;3.35;;;15.60;90.60;;;;;;5056384;28;20029;-76
2024/04/06 00:59:43;;;;;;;8.23;3.70;;;15.60;90.50;;;;;;5059309;28;20101;-77
2024/04/06 01:02:09;;;;;;;8.65;3.58;;;15.60;90.30;;;;;;5055381;28;20021;-78
2024/04/06 01:04:35;;;;;;;7.15;3.35;;;15.60;90.30;;;;;;5060201;28;20085;-77
2024/04/06 01:07:00;;;;;;;9.48;3.30;;;15.60;90.00;;;;;;5054536;28;20041;-78
2024/04/06 01:09:26;;;;;;;7.40;2.83;;;15.60;89.80;;;;;;5058608;28;20487;-78
2024/04/06 01:11:52;;;;;;;6.53;2.88;;;15.70;89.60;;;;;;5056650;28;20083;-77
2024/04/06 01:14:17;;;;;;;8.30;2.85;;;15.70;89.20;;;;;;5059811;28;20029;-77
2024/04/06 01:16:43;;;;;;;7.50;2.60;;;15.80;89.00;;;;;;5057360;28;20040;-78
2024/04/06 01:19:09;;;;;;;7.03;3.20;;;15.80;88.90;;;;;;5060316;28;20058;-77
2024/04/06 01:21:35;;;;;;;6.20;2.70;;;15.80;88.70;;;;;;5057003;28;20037;-78
2024/04/06 01:24:05;;;;;;;8.98;3.22;;;15.90;88.40;;;;;;5062905;28;20020;-77
2024/04/06 01:26:31;;;;;;;9.65;3.25;;;15.80;88.40;;;;;;5058209;28;20047;-79
2024/04/06 01:28:57;;;;;;;9.48;3.67;;;15.80;88.40;;;;;;5059597;28;20024;-79
2024/04/06 01:31:23;;;;;;;8.25;2.95;;;15.80;88.40;;;;;;5040664;28;20565;-77
2024/04/06 01:33:49;;;;;;;9.43;3.50;;;15.80;88.40;;;;;;5049616;28;20090;-78
2024/04/06 01:36:15;;;;;;;8.27;3.60;;;15.80;88.30;;;;;;5057566;28;20059;-79
2024/04/06 01:38:41;;;;;;;9.13;3.60;;;15.80;88.30;;;;;;5055326;28;20016;-77
2024/04/06 01:41:07;;;;;;;10.80;3.83;;;15.80;88.30;;;;;;5058485;28;20044;-78
2024/04/06 01:43:32;;;;;;;9.10;3.50;;;15.80;88.40;;;;;;5058969;28;20029;-78
2024/04/06 01:45:58;;;;;;;8.75;3.75;;;15.80;88.40;;;;;;5058366;28;20040;-76
2024/04/06 01:48:23;;;;;;;6.82;3.72;;;15.80;88.30;;;;;;5058161;28;20062;-78
2024/04/06 01:50:49;;;;;;;7.70;3.55;;;15.80;88.20;;;;;;5052479;28;20078;-77
2024/04/06 01:53:15;;;;;;;8.85;3.22;;;15.80;88.10;;;;;;5056510;28;20032;-78
2024/04/06 01:55:40;;;;;;;7.50;3.38;;;15.80;88.00;;;;;;5049187;28;20041;-78
2024/04/06 01:58:06;;;;;;;8.07;3.17;;;15.80;88.00;;;;;;5058758;28;20210;-77
2024/04/06 02:00:32;;;;;;;9.93;3.88;;;15.70;88.00;;;;;;5056578;28;20469;-79
2024/04/06 02:02:57;;;;;;;6.78;3.08;;;15.70;88.10;;;;;;5056384;28;20029;-78
2024/04/06 02:05:23;;;;;;;6.60;3.50;;;15.70;88.00;;;;;;5056732;28;20377;-77
2024/04/06 02:07:48;;;;;;;7.28;3.10;;;15.70;88.00;;;;;;5057987;28;20834;-76
2024/04/06 02:10:14;;;;;;;8.50;3.17;;;15.70;87.90;;;;;;5057930;28;20020;-77
2024/04/06 02:12:40;;;;;;;7.75;3.40;;;15.80;87.50;;;;;;5057519;28;20085;-78
2024/04/06 02:15:06;;;;;;;9.23;3.15;;;15.70;87.30;;;;;;5056459;28;20075;-78
2024/04/06 02:17:31;;;;;;;6.10;2.90;;;15.70;87.30;;;;;;5056781;28;20036;-78
2024/04/06 02:19:57;;;;;;;6.72;3.00;;;15.80;86.90;;;;;;5063790;28;20592;-78
2024/04/06 02:22:22;;;;;;;7.70;3.28;;;15.80;86.90;;;;;;5055603;28;20032;-77
2024/04/06 02:24:50;;;;;;;6.70;2.95;;;15.80;86.80;;;;;;5057880;28;20025;-77
2024/04/06 02:27:16;;;;;;;6.82;2.90;;;15.80;86.80;;;;;;5051870;28;20024;-76
2024/04/06 02:29:42;;;;;;;9.43;3.50;;;15.80;86.70;;;;;;5057681;28;20039;-77
2024/04/06 02:32:08;;;;;;;8.60;3.10;;;15.80;86.40;;;;;;5056103;28;20033;-78
2024/04/06 02:34:33;;;;;;;6.47;3.00;;;15.80;86.30;;;;;;5056719;28;20030;-78
2024/04/06 02:36:59;;;;;;;9.43;3.42;;;15.80;86.20;;;;;;5060031;28;20044;-78
2024/04/06 02:39:24;;;;;;;5.13;2.72;;;15.80;86.10;;;;;;5056086;28;20107;-77
2024/04/06 02:41:50;;;;;;;6.70;3.20;;;15.80;85.90;;;;;;5039044;28;20062;-78
2024/04/06 02:44:16;;;;;;;7.93;3.03;;;15.90;85.90;;;;;;5058631;28;20020;-78
2024/04/06 02:46:41;;;;;;;7.95;2.60;;;15.80;86.00;;;;;;5050981;28;20036;-78
2024/04/06 02:49:07;;;;;;;8.02;3.00;;;15.80;85.70;;;;;;5059071;28;20475;-77
2024/04/06 02:51:33;;;;;;;6.30;2.88;;;15.80;85.40;;;;;;5042494;28;20033;-77
2024/04/06 02:53:59;;;;;;;7.07;3.33;;;15.80;85.30;;;;;;5056400;28;20043;-77
2024/04/06 02:56:25;;;;;;;6.43;2.78;;;15.80;85.00;;;;;;5055507;28;20048;-77
2024/04/06 02:58:51;;;;;;;7.43;3.17;;;15.80;85.10;;;;;;5063567;28;20561;-78
2024/04/06 03:01:16;;;;;;;7.63;2.75;;;15.80;84.90;;;;;;5061162;28;20031;-78
2024/04/06 03:03:42;;;;;;;5.88;2.60;;;15.90;84.80;;;;;;5054053;28;20024;-79
2024/04/06 03:06:08;;;;;;;8.45;3.63;;;15.90;84.70;;;;;;5056767;28;20025;-77
2024/04/06 03:08:34;;;;;;;5.65;2.40;;;15.90;84.50;;;;;;5056423;28;20135;-77
2024/04/06 03:10:59;;;;;;;6.63;2.60;;;15.80;84.20;;;;;;5054431;28;20036;-78
2024/04/06 03:13:25;;;;;;;6.35;2.80;;;15.80;84.20;;;;;;5054813;28;20330;-77
2024/04/06 03:15:51;;;;;;;6.60;3.05;;;15.90;84.10;;;;;;5041149;28;20088;-77
2024/04/06 03:18:16;;;;;;;8.52;2.72;;;15.80;84.00;;;;;;5056509;28;20112;-77
2024/04/06 03:20:42;;;;;;;8.15;3.08;;;15.90;83.90;;;;;;5056164;28;20033;-77
2024/04/06 03:23:08;;;;;;;6.43;2.70;;;15.90;83.80;;;;;;5056294;28;20144;-78
2024/04/06 03:25:34;;;;;;;5.35;2.80;;;15.90;83.70;;;;;;5055657;28;20131;-78
2024/04/06 03:28:00;;;;;;;6.85;3.33;;;15.80;83.60;;;;;;5057823;28;20016;-77
2024/04/06 03:30:26;;;;;;;6.05;2.97;;;15.80;83.60;;;;;;5056142;28;20098;-78
2024/04/06 03:32:52;;;;;;;7.15;2.88;;;15.80;83.70;;;;;;5056296;28;20043;-79
2024/04/06 03:35:20;;;;;;;7.13;3.10;;;15.90;83.50;;;;;;5054811;28;20021;-79
2024/04/06 03:37:50;;;;;;;8.10;3.40;;;15.90;83.20;;;;;;5056573;28;20117;-80
2024/04/06 03:40:16;;;;;;;8.07;3.35;;;15.90;83.00;;;;;;5056304;28;20029;-81
2024/04/06 03:42:43;;;;;;;10.90;3.38;;;15.90;83.00;;;;;;5066727;28;20124;-80
2024/04/06 03:45:10;;;;;;;7.28;2.80;;;15.90;82.80;;;;;;5049732;28;20017;-80
2024/04/06 03:47:37;;;;;;;8.48;3.00;;;15.90;82.70;;;;;;5057313;28;20024;-80
2024/04/06 03:50:03;;;;;;;7.63;2.97;;;15.90;82.60;;;;;;5053654;28;20041;-80
2024/04/06 03:52:29;;;;;;;8.45;3.25;;;15.90;82.70;;;;;;5043267;28;20051;-80
2024/04/06 03:54:54;;;;;;;8.65;3.35;;;15.80;82.80;;;;;;5053908;28;20381;-79
2024/04/06 03:57:20;;;;;;;7.07;3.35;;;15.90;82.50;;;;;;5051821;28;20041;-79
2024/04/06 03:59:45;;;;;;;6.03;2.90;;;15.90;82.50;;;;;;5057413;28;20024;-81
2024/04/06 04:02:11;;;;;;;8.35;2.92;;;15.90;82.30;;;;;;5054904;28;20032;-78
2024/04/06 04:04:37;;;;;;;8.93;3.28;;;16.00;82.20;;;;;;5056086;28;20019;-81
2024/04/06 04:07:03;;;;;;;6.70;2.95;;;16.00;82.00;;;;;;5054481;28;20050;-81
2024/04/06 04:09:28;;;;;;;6.90;3.03;;;15.90;81.90;;;;;;5064043;28;20349;-79
2024/04/06 04:11:54;;;;;;;6.55;2.90;;;15.90;81.90;;;;;;5051751;28;20539;-78
2024/04/06 04:14:20;;;;;;;5.80;2.65;;;15.90;82.10;;;;;;5055930;28;20594;-79
2024/04/06 04:16:46;;;;;;;8.77;3.22;;;15.80;82.00;;;;;;5054454;28;20673;-81
2024/04/06 04:19:11;;;;;;;7.05;2.80;;;15.80;82.20;;;;;;5038350;28;20115;-80
2024/04/06 04:21:37;;;;;;;7.35;2.90;;;15.90;82.00;;;;;;5057692;28;20335;-80
2024/04/06 04:24:03;;;;;;;7.43;3.08;;;16.00;81.80;;;;;;5060255;28;20028;-80
2024/04/06 04:26:29;;;;;;;7.82;3.20;;;15.90;81.90;;;;;;5056424;28;20036;-77
2024/04/06 04:28:54;;;;;;;6.20;3.13;;;16.00;81.90;;;;;;5060100;28;20492;-82
2024/04/06 04:31:20;;;;;;;7.03;3.05;;;16.00;81.90;;;;;;5058815;28;20329;-81
2024/04/06 04:33:45;;;;;;;7.82;3.22;;;16.00;81.80;;;;;;5061377;28;20031;-81
2024/04/06 04:36:12;;;;;;;8.55;3.45;;;16.00;81.90;;;;;;5061671;28;20115;-80
2024/04/06 04:38:39;;;;;;;6.90;2.80;;;16.00;82.00;;;;;;5059874;28;20048;-78
2024/04/06 04:41:05;;;;;;;7.57;2.92;;;16.00;82.20;;;;;;5041452;28;20460;-78
2024/04/06 04:43:31;;;;;;;6.40;3.10;;;16.00;82.10;;;;;;5040666;28;20016;-79
2024/04/06 04:45:57;;;;;;;5.80;3.03;;;16.00;82.10;;;;;;5058055;28;20038;-81
2024/04/06 04:48:23;;;;;;;5.28;2.97;;;15.90;82.30;;;;;;5059384;28;20418;-79
2024/04/06 04:50:49;;;;;;;6.18;2.83;;;15.90;82.30;;;;;;5058390;28;20858;-78
2024/04/06 04:53:15;;;;;;;7.03;2.50;;;15.90;82.30;;;;;;5059105;28;20028;-77
2024/04/06 04:55:40;;;;;;;8.07;3.60;;;15.90;82.30;;;;;;5058778;28;20036;-80
2024/04/06 04:58:06;;;;;;;7.03;2.70;;;15.90;82.50;;;;;;5059914;28;20021;-81
2024/04/06 05:00:32;;;;;;;8.65;2.88;;;15.90;82.60;;;;;;5058665;28;20047;-79
2024/04/06 05:02:59;;;;;;;7.63;3.00;;;15.80;82.80;;;;;;5050965;28;20028;-79
2024/04/06 05:05:25;;;;;;;6.25;2.70;;;15.70;83.00;;;;;;5059101;28;20509;-79
2024/04/06 05:07:50;;;;;;;8.07;3.30;;;15.70;83.10;;;;;;5074815;28;20051;-79
2024/04/06 05:10:16;;;;;;;7.60;3.03;;;15.70;83.20;;;;;;5076041;28;20100;-80
2024/04/06 05:12:42;;;;;;;5.15;3.10;;;15.70;83.20;;;;;;5076063;28;20040;-79
2024/04/06 05:15:07;;;;;;;8.45;3.17;;;15.60;83.40;;;;;;5043878;28;20768;-80
2024/04/06 05:17:36;;;;;;;6.95;3.20;;;15.60;83.60;;;;;;5058642;28;20519;-82
2024/04/06 05:20:02;;;;;;;6.57;3.03;;;15.60;83.60;;;;;;5059656;28;20101;-81
2024/04/06 05:22:28;;;;;;;6.47;3.20;;;15.60;83.80;;;;;;5062771;28;20782;-81
2024/04/06 05:24:53;;;;;;;5.88;3.10;;;15.60;83.50;;;;;;5063167;28;20669;-81
2024/04/06 05:27:19;;;;;;;7.65;3.58;;;15.60;83.50;;;;;;5043642;28;20067;-80
2024/04/06 05:29:45;;;;;;;7.22;3.17;;;15.60;83.50;;;;;;5061727;28;20024;-80
2024/04/06 05:32:11;;;;;;;8.98;2.97;;;15.60;83.40;;;;;;5059183;28;20536;-80
2024/04/06 05:34:37;;;;;;;5.72;2.95;;;15.70;83.20;;;;;;5058668;28;20675;-80
2024/04/06 05:37:03;;;;;;;8.07;2.60;;;15.70;83.00;;;;;;5058605;28;20559;-82
2024/04/06 05:39:29;;;;;;;8.07;3.15;;;15.80;83.00;;;;;;5060289;28;20028;-80
2024/04/06 05:41:55;;;;;;;6.28;3.00;;;15.80;82.80;;;;;;5059210;28;20032;-81
2024/04/06 05:44:22;;;;;;;4.90;2.53;;;15.90;82.30;;;;;;5058210;28;20040;-78
2024/04/06 05:46:48;;;;;;;6.18;2.83;;;15.90;82.20;;;;;;5056253;28;20039;-79
2024/04/06 05:49:13;;;;;;;8.18;3.25;;;15.90;82.10;;;;;;5058854;28;20028;-81
2024/04/06 05:51:39;;;;;;;7.13;2.90;;;15.90;82.10;;;;;;5057800;28;20028;-79
2024/04/06 05:54:05;;;;;;;8.20;2.78;;;15.90;82.00;;;;;;5062036;28;20054;-81
2024/04/06 05:56:30;;;;;;;5.78;3.00;;;15.90;81.90;;;;;;5053775;28;20037;-81
2024/04/06 05:58:56;;;;;;;5.40;2.80;;;15.90;81.80;;;;;;5063921;28;20193;-80
2024/04/06 06:01:22;;;;;;;8.23;2.78;;;16.00;81.60;;;;;;5063173;28;20105;-81
2024/04/06 06:03:48;;;;;;;6.35;3.03;;;15.90;81.60;;;;;;5054244;28;20466;-82
2024/04/06 06:06:14;;;;;;;6.00;2.67;;;15.90;81.70;;;;;;5058449;28;20540;-80
2024/04/06 06:08:39;;;;;;;8.18;2.75;;;16.00;81.40;;;;;;5057969;28;20740;-81
2024/04/06 06:11:05;;;;;;;6.55;2.90;;;16.00;81.10;;;;;;5056179;28;20041;-81
2024/04/06 06:13:31;;;;;;;7.10;2.83;;;16.00;81.10;;;;;;5057820;28;20123;-82
2024/04/06 06:15:57;;;;;;;7.85;2.83;;;16.10;80.90;;;;;;5057192;28;20043;-82
2024/04/06 06:18:22;;;;;;;8.27;3.17;;;16.10;80.50;;;;;;5057633;28;20436;-81
2024/04/06 06:20:48;;;;;;;6.32;3.03;;;16.20;80.50;;;;;;5057674;28;20043;-80
2024/04/06 06:23:14;;;;;;;5.57;2.47;;;16.20;80.20;;;;;;5058894;28;20465;-82
2024/04/06 06:25:39;;;;;;;6.30;2.85;;;16.30;79.80;;;;;;5057224;28;20044;-79
2024/04/06 06:28:05;;;;;;;6.47;2.80;;;16.40;79.60;;;;;;5058218;28;20139;-81
2024/04/06 06:30:30;;;;;;;6.10;2.65;;;16.40;79.30;;;;;;5055845;28;20015;-79
2024/04/06 06:32:57;;;;;;;5.20;2.70;;;16.60;79.00;;;;;;5059366;28;20020;-82
2024/04/06 06:35:23;;;;;;;4.55;2.50;;;16.60;78.60;;;;;;5039424;28;20024;-81
2024/04/06 06:37:49;;;;;;;7.65;2.85;;;16.70;78.30;;;;;;5050536;28;20020;-80
2024/04/06 06:40:15;;;;;;;8.07;2.90;;;16.80;78.10;;;;;;5056270;28;20016;-81
2024/04/06 06:42:40;;;;;;;8.43;2.92;;;16.80;77.80;;;;;;5056609;28;20028;-81
2024/04/06 06:45:06;;;;;;;8.32;3.15;;;17.00;77.10;;;;;;5056350;28;20040;-79
2024/04/06 06:47:35;;;;;;;7.88;2.88;;;17.00;76.70;;;;;;5056524;28;20036;-80
2024/04/06 06:50:02;;;;;;;7.80;3.00;;;17.00;76.80;;;;;;5057376;28;20040;-82
2024/04/06 06:52:28;;;;;;;8.27;2.90;;;17.00;76.40;;;;;;5057957;28;20025;-79
2024/04/06 06:54:54;;;;;;;5.65;2.90;;;17.00;76.50;;;;;;5054101;28;20041;-80
2024/04/06 06:57:20;;;;;;;8.32;2.50;;;17.00;76.10;;;;;;5051879;28;20105;-78
2024/04/06 06:59:45;;;;;;;6.72;3.10;;;17.00;76.30;;;;;;5058379;28;20024;-79
2024/04/06 07:02:11;;;;;;;6.82;2.78;;;17.10;76.20;;;;;;5055975;28;20393;-79
2024/04/06 07:04:36;;;;;;;5.53;2.42;;;17.10;76.20;;;;;;5057005;28;20361;-77
2024/04/06 07:07:03;;;;;;;7.68;2.63;;;17.10;76.10;;;;;;5057299;28;20036;-80
2024/04/06 07:09:29;;;;;;;6.65;2.85;;;17.00;76.00;;;;;;5057919;28;20024;-80
2024/04/06 07:11:55;;;;;;;6.03;2.83;;;17.10;75.40;;;;;;5056447;28;20050;-80
2024/04/06 07:14:21;;;;;;;6.68;2.78;;;17.10;75.80;;;;;;5056965;28;20029;-80
2024/04/06 07:16:46;;;;;;;5.22;2.30;;;17.10;75.50;;;;;;5055643;28;20166;-77
2024/04/06 07:19:12;;;;;;;6.93;2.65;;;17.00;75.60;;;;;;5059802;28;20029;-80
2024/04/06 07:21:38;;;;;;;5.60;2.40;;;17.00;75.40;;;;;;5052844;28;20051;-78
2024/04/06 07:24:04;;;;;;;6.97;2.67;;;17.00;75.60;;;;;;5062091;28;20024;-77
2024/04/06 07:26:30;;;;;;;5.50;2.30;;;17.00;75.00;;;;;;5031921;28;20041;-79
2024/04/06 07:28:58;;;;;;;6.40;2.83;;;17.10;75.20;;;;;;5046458;28;20023;-80
2024/04/06 07:31:24;;;;;;;5.20;2.63;;;17.20;74.80;;;;;;5055304;28;20032;-81
2024/04/06 07:33:50;;;;;;;6.45;2.50;;;17.10;74.60;;;;;;5055809;28;20055;-82
2024/04/06 07:36:17;;;;;;;5.50;2.42;;;17.10;74.50;;;;;;5055743;28;20086;-79
2024/04/06 07:38:42;;;;;;;7.22;2.42;;;17.10;74.50;;;;;;5057537;28;20024;-78
2024/04/06 07:41:08;;;;;;;7.30;2.70;;;17.10;74.20;;;;;;5036159;28;20214;-77
2024/04/06 07:43:34;;;;;;;7.47;2.55;;;17.10;73.90;;;;;;5055889;28;20032;-77
2024/04/06 07:46:00;;;;;;;7.47;2.42;;;17.20;73.40;;;;;;5055745;28;20052;-80
2024/04/06 07:48:26;;;;;;;6.97;2.42;;;17.20;73.40;;;;;;5057007;28;20042;-81
2024/04/06 07:50:52;;;;;;;6.30;2.30;;;17.30;72.90;;;;;;5053848;28;20032;-80
2024/04/06 07:53:18;;;;;;;8.63;2.65;;;17.50;72.50;;;;;;5056423;28;20024;-82
2024/04/06 07:55:44;;;;;;;5.75;2.25;;;17.60;71.90;;;;;;5052387;28;20071;-81
2024/04/06 07:58:10;;;;;;;4.32;2.08;;;17.80;71.70;;;;;;5060800;28;20486;-78
2024/04/06 08:00:39;;;;;;;5.75;2.60;;;17.90;71.10;;;;;;5058297;28;20130;-77
2024/04/06 08:03:05;;;;;;;6.45;2.72;;;18.10;70.50;;;;;;5058601;28;20136;-78
2024/04/06 08:05:31;;;;;;;6.88;2.30;;;18.00;70.10;;;;;;5059358;28;20435;-77
2024/04/06 08:07:57;;;;;;;5.70;2.50;;;18.00;70.40;;;;;;5060752;28;20085;-75
2024/04/06 08:10:23;;;;;;;7.13;2.40;;;18.10;70.10;;;;;;5054622;28;20028;-75
2024/04/06 08:12:50;;;;;;;5.47;2.40;;;18.20;69.20;;;;;;5061337;28;20176;-74
2024/04/06 08:15:16;;;;;;;6.38;2.28;;;18.20;68.70;;;;;;5059683;28;20036;-77
2024/04/06 08:17:48;;;;;;;5.57;2.30;;;18.20;68.90;;;;;;5060663;28;20117;-77
2024/04/06 08:20:14;;;;;;;3.15;1.77;;;18.30;68.10;;;;;;5056372;28;20098;-75
2024/04/06 08:22:40;;;;;;;4.30;1.90;;;18.60;67.50;;;;;;5062530;28;20170;-75
2024/04/06 08:25:06;;;;;;;6.70;2.15;;;18.70;67.00;;;;;;5055322;28;20171;-78
2024/04/06 08:27:33;;;;;;;4.60;2.03;;;18.90;67.30;;;;;;5059583;28;20025;-76
2024/04/06 08:30:07;;;;;;;9.02;2.00;;;18.80;66.50;;;;;;5060052;28;20111;-74
2024/04/06 08:32:36;;;;;;;5.78;2.17;;;19.00;66.00;;;;;;5058899;28;20025;-74
2024/04/06 08:35:02;;;;;;;6.50;2.30;;;19.10;65.60;;;;;;5059855;28;20090;-75
2024/04/06 08:37:28;;;;;;;5.85;2.13;;;19.30;65.60;;;;;;5063413;28;20059;-77
2024/04/06 08:39:54;;;;;;;4.80;1.80;;;19.40;65.30;;;;;;5060551;28;20461;-76
2024/04/06 08:42:23;;;;;;;5.65;2.10;;;19.20;65.40;;;;;;5059580;28;20036;-76
2024/04/06 08:44:49;;;;;;;4.50;2.20;;;19.30;65.90;;;;;;5059584;28;20029;-76
2024/04/06 08:47:16;;;;;;;5.82;2.10;;;19.30;64.60;;;;;;5057728;28;20028;-76
2024/04/06 08:49:43;;;;;;;6.15;1.70;;;19.40;64.10;;;;;;5061504;28;20669;-75
2024/04/06 08:52:09;;;;;;;5.97;1.95;;;19.40;63.70;;;;;;5057466;28;20124;-75
2024/04/06 08:54:36;;;;;;;4.72;2.03;;;19.50;64.10;;;;;;5055668;28;20032;-75
2024/04/06 08:57:02;;;;;;;7.10;2.22;;;19.60;63.90;;;;;;5060035;28;20068;-75
2024/04/06 08:59:28;;;;;;;6.05;2.10;;;19.60;62.60;;;;;;5062652;28;20607;-75
2024/04/06 09:01:54;;;;;;;5.03;1.85;;;19.60;63.50;;;;;;5057568;28;20038;-75
2024/04/06 09:04:20;;;;;;;6.53;2.00;;;19.60;63.00;;;;;;5061063;28;20025;-74
2024/04/06 09:06:46;;;;;;;5.63;2.00;;;19.60;63.60;;;;;;5058182;28;20036;-76
2024/04/06 09:09:12;;;;;;;6.63;1.92;;;19.90;63.10;;;;;;5064215;28;20051;-73
2024/04/06 09:11:38;;;;;;;5.40;2.10;;;20.10;63.10;;;;;;5044380;28;20032;-75
2024/04/06 09:14:05;;;;;;;6.15;1.80;;;20.30;62.20;;;;;;5056559;28;20047;-77
2024/04/06 09:16:30;;;;;;;5.05;1.80;;;20.50;61.70;;;;;;5058441;28;20662;-76
2024/04/06 09:18:56;;;;;;;6.28;1.92;;;20.60;62.10;;;;;;5063492;28;20025;-77
2024/04/06 09:21:22;;;;;;;5.40;1.90;;;20.70;61.30;;;;;;5061255;28;21391;-78
2024/04/06 09:23:54;;;;;;;4.13;2.17;;;20.70;60.50;;;;;;5059818;28;20462;-77
2024/04/06 09:26:20;;;;;;;5.10;1.85;;;20.70;60.10;;;;;;5043251;28;20040;-76
2024/04/06 09:28:53;;;;;;;5.20;1.58;;;20.80;60.10;;;;;;5047146;28;20557;-78
2024/04/06 09:31:25;;;;;;;5.70;2.03;;;21.00;58.90;;;;;;5052683;28;20040;-76
2024/04/06 09:33:56;;;;;;;6.10;1.77;;;21.10;58.70;;;;;;5061161;28;20024;-75
2024/04/06 09:36:22;;;;;;;5.95;1.90;;;21.30;57.30;;;;;;5059415;28;20433;-76
2024/04/06 09:38:48;;;;;;;6.38;1.75;;;21.30;57.30;;;;;;5046155;28;20350;-76
2024/04/06 09:41:19;;;;;;;4.60;1.80;;;21.50;57.90;;;;;;5066921;28;20055;-74
2024/04/06 09:43:49;;;;;;;5.15;2.03;;;21.50;56.30;;;;;;5062637;28;20465;-74
2024/04/06 09:46:18;;;;;;;4.60;1.80;;;21.50;57.40;;;;;;5061168;28;20052;-74
2024/04/06 09:48:45;;;;;;;4.63;1.70;;;21.60;56.60;;;;;;5062452;28;20029;-74
2024/04/06 09:51:11;;;;;;;4.38;1.58;;;21.70;56.30;;;;;;5060072;28;20048;-75
2024/04/06 09:53:39;;;;;;;5.68;1.83;;;21.80;55.50;;;;;;5062696;28;20040;-76
2024/04/06 09:56:07;;;;;;;5.60;2.38;;;22.00;55.10;;;;;;5060510;28;20044;-78
2024/04/06 09:58:33;;;;;;;5.63;1.70;;;22.00;54.00;;;;;;5063111;28;20067;-77
2024/04/06 10:01:11;;;;;;;7.07;2.30;;;22.00;53.40;;;;;;5055648;28;20053;-77
2024/04/06 10:03:42;;;;;;;5.10;1.75;;;22.30;53.90;;;;;;5060811;28;20052;-74
2024/04/06 10:06:14;;;;;;;6.07;2.08;;;22.50;52.90;;;;;;5044153;28;20056;-75
2024/04/06 10:08:50;;;;;;;3.22;1.42;;;22.60;52.80;;;;;;5062542;28;20138;-75
2024/04/06 10:11:24;;;;;;;4.53;1.65;;;22.70;52.10;;;;;;5041435;28;20040;-75
2024/04/06 10:13:53;;;;;;;3.83;1.55;;;22.70;51.60;;;;;;5054145;28;20040;-75
2024/04/06 10:16:22;;;;;;;5.60;2.00;;;22.50;51.50;;;;;;5062536;28;20127;-76
2024/04/06 10:18:48;;;;;;;6.55;2.15;;;22.60;51.10;;;;;;5061159;28;20465;-74
2024/04/06 10:21:16;;;;;;;4.55;1.73;;;22.80;51.20;;;;;;5061024;28;20041;-74
2024/04/06 10:23:45;;;;;;;5.03;1.60;;;23.10;49.80;;;;;;5060339;28;20058;-74
2024/04/06 10:26:16;;;;;;;11.88;2.60;;;23.40;49.30;;;;;;5060750;28;20503;-76
2024/04/06 10:28:45;;;;;;;8.18;2.22;;;23.40;48.90;;;;;;5058604;28;20488;-74
2024/04/06 10:31:12;;;;;;;6.28;1.83;;;23.50;48.60;;;;;;5061128;28;20037;-74
2024/04/06 10:33:40;;;;;;;5.20;1.80;;;23.50;49.20;;;;;;5061972;28;20040;-74
2024/04/06 10:36:13;;;;;;;6.80;2.20;;;23.30;49.20;;;;;;5061205;28;20028;-74
2024/04/06 10:38:39;;;;;;;4.72;1.60;;;23.20;49.10;;;;;;5061708;28;20025;-73
2024/04/06 10:41:14;;;;;;;5.70;1.80;;;23.10;50.10;;;;;;5061040;28;20463;-77
2024/04/06 10:43:40;;;;;;;5.68;1.85;;;23.10;50.50;;;;;;5067619;28;20298;-75
2024/04/06 10:46:06;;;;;;;4.65;1.58;;;23.00;50.30;;;;;;5061105;28;20032;-74
2024/04/06 10:48:38;;;;;;;9.07;2.90;;;23.00;50.50;;;;;;5062836;28;20028;-74
2024/04/06 10:51:04;;;;;;;7.18;2.58;;;23.10;50.80;;;;;;5058233;28;20032;-75
2024/04/06 10:53:30;;;;;;;5.40;1.83;;;23.20;50.30;;;;;;5060370;28;20040;-75
2024/04/06 10:55:56;;;;;;;7.65;1.80;;;23.30;50.80;;;;;;5060129;28;20130;-75
2024/04/06 10:58:22;;;;;;;4.65;1.85;;;23.40;51.20;;;;;;5062295;28;20716;-75
2024/04/06 11:00:48;;;;;;;6.95;1.80;;;23.50;50.20;;;;;;5059688;28;20045;-75
2024/04/06 11:03:14;;;;;;;3.75;1.42;;;23.50;50.10;;;;;;5061409;28;20028;-75
2024/04/06 11:05:40;;;;;;;8.15;2.28;;;23.70;49.60;;;;;;5061223;28;20052;-75
2024/04/06 11:08:07;;;;;;;4.75;1.52;;;23.80;48.80;;;;;;5061802;28;20117;-74
2024/04/06 11:10:33;;;;;;;4.38;1.73;;;23.70;48.70;;;;;;5061311;28;20581;-75
2024/04/06 11:13:00;;;;;;;4.40;1.25;;;23.50;49.60;;;;;;5062005;28;20016;-74
2024/04/06 11:15:29;;;;;;;3.30;1.30;;;23.60;49.70;;;;;;5060954;28;20070;-75
2024/04/06 11:17:56;;;;;;;5.85;1.73;;;23.50;49.70;;;;;;5061664;28;20837;-75
2024/04/06 11:20:22;;;;;;;5.90;1.48;;;23.50;49.90;;;;;;5061052;28;20095;-75
2024/04/06 11:22:48;;;;;;;3.90;1.63;;;23.50;49.90;;;;;;5060521;28;20040;-76
2024/04/06 11:25:15;;;;;;;3.75;1.88;;;23.30;50.20;;;;;;5059389;28;20040;-74
2024/04/06 11:27:51;;;;;;;4.20;1.70;;;23.20;50.90;;;;;;5057829;28;20465;-76
2024/04/06 11:30:18;;;;;;;4.25;1.50;;;23.30;51.40;;;;;;5063530;28;20438;-74
2024/04/06 11:32:45;;;;;;;6.20;1.90;;;23.50;51.60;;;;;;5064507;28;20488;-74
2024/04/06 11:35:11;;;;;;;4.30;1.75;;;23.50;51.10;;;;;;5066282;28;20043;-76
2024/04/06 11:37:38;;;;;;;5.03;1.70;;;23.40;51.00;;;;;;5061462;28;20075;-74
2024/04/06 11:40:04;;;;;;;6.18;1.58;;;23.40;52.00;;;;;;5065389;28;20032;-74
2024/04/06 11:42:30;;;;;;;5.05;1.52;;;23.40;51.40;;;;;;5055033;28;20117;-75
2024/04/06 11:44:55;;;;;;;7.85;1.58;;;23.50;51.40;;;;;;5066020;28;20103;-75
2024/04/06 11:47:21;;;;;;;3.92;1.63;;;23.50;51.00;;;;;;5062505;28;20060;-75
2024/04/06 11:49:48;;;;;;;3.85;1.63;;;23.50;52.60;;;;;;5065295;28;20411;-75
2024/04/06 11:52:14;;;;;;;4.60;1.75;;;23.70;52.70;;;;;;5062475;28;20037;-74
2024/04/06 11:54:42;;;;;;;2.83;1.50;;;24.00;52.20;;;;;;5067612;28;20036;-75
2024/04/06 11:57:08;;;;;;;4.38;1.55;;;24.10;51.60;;;;;;5064186;28;20400;-74
2024/04/06 11:59:33;;;;;;;5.70;1.73;;;24.20;51.30;;;;;;5049261;28;20401;-75
2024/04/06 12:01:59;;;;;;;2.28;1.23;;;24.20;50.90;;;;;;5062614;28;20139;-74
2024/04/06 12:04:24;;;;;;;5.03;1.85;;;24.30;51.40;;;;;;5065428;28;20028;-74
2024/04/06 12:06:52;;;;;;;4.70;1.98;;;24.40;51.20;;;;;;5062000;28;20107;-73
2024/04/06 12:09:21;;;;;;;2.88;1.40;;;24.30;50.50;;;;;;5063047;28;20032;-74
2024/04/06 12:11:46;;;;;;;30.55;3.03;;;24.40;51.20;;;;;;5043824;28;20051;-75
2024/04/06 12:14:12;;;;;;;4.88;1.60;;;24.40;50.40;;;;;;5064622;28;20785;-75
2024/04/06 12:16:37;;;;;;;3.72;1.70;;;24.40;50.50;;;;;;5044164;28;20040;-75
2024/04/06 12:19:03;;;;;;;4.78;1.60;;;24.50;50.50;;;;;;5064303;28;20027;-75
2024/04/06 12:21:29;;;;;;;3.95;1.17;;;24.50;50.60;;;;;;5062827;28;20059;-75
2024/04/06 12:23:55;;;;;;;5.65;1.60;;;24.50;50.70;;;;;;5061387;28;20031;-74
2024/04/06 12:26:20;;;;;;;6.10;1.70;;;24.50;49.80;;;;;;5062302;28;20577;-76
2024/04/06 12:28:48;;;;;;;4.85;1.58;;;24.40;49.80;;;;;;5068373;28;20028;-75
2024/04/06 12:31:14;;;;;;;8.40;2.00;;;24.50;49.20;;;;;;5063262;28;20770;-75
2024/04/06 12:33:40;;;;;;;6.22;1.58;;;24.50;48.60;;;;;;5063918;28;20835;-77
2024/04/06 12:36:06;;;;;;;3.78;1.50;;;24.40;48.80;;;;;;5057512;28;20041;-75
2024/04/06 12:38:32;;;;;;;5.43;1.77;;;24.40;48.80;;;;;;5064637;28;20025;-76
2024/04/06 12:40:59;;;;;;;6.40;1.48;;;24.60;49.80;;;;;;5045450;28;20039;-74